sensor_id;sensor_type;location;lat;lon;timestamp;P1;durP1;ratioP1;P2;durP2;ratioP2
13672;SDS011;6909;52.202;9.876;2023-05-10T00:00:24;0.87;;;0.77;;
13672;SDS011;6909;52.202;9.876;2023-05-10T00:02:51;1.70;;;1.20;;
13672;SDS011;6909;52.202;9.876;2023-05-10T00:05:18;1.60;;;1.20;;
13672;SDS011;6909;52.202;9.876;2023-05-10T00:07:45;0.93;;;0.80;;
13672;SDS011;6909;52.202;9.876;2023-05-10T00:10:11;2.97;;;2.03;;
13672;SDS011;6909;52.202;9.876;2023-05-10T00:12:39;1.23;;;1.03;;
13672;SDS011;6909;52.202;9.876;2023-05-10T00:15:07;1.40;;;1.10;;
13672;SDS011;6909;52.202;9.876;2023-05-10T00:17:34;1.77;;;1.30;;
13672;SDS011;6909;52.202;9.876;2023-05-10T00:20:01;9.37;;;1.20;;
13672;SDS011;6909;52.202;9.876;2023-05-10T00:22:29;1.47;;;1.10;;
13672;SDS011;6909;52.202;9.876;2023-05-10T00:24:56;1.47;;;1.27;;
13672;SDS011;6909;52.202;9.876;2023-05-10T00:27:23;1.10;;;1.00;;
13672;SDS011;6909;52.202;9.876;2023-05-10T00:29:51;1.47;;;1.23;;
13672;SDS011;6909;52.202;9.876;2023-05-10T00:32:18;1.53;;;0.93;;
13672;SDS011;6909;52.202;9.876;2023-05-10T00:34:45;1.70;;;1.13;;
13672;SDS011;6909;52.202;9.876;2023-05-10T00:37:12;1.50;;;1.20;;
13672;SDS011;6909;52.202;9.876;2023-05-10T00:39:38;1.27;;;1.00;;
13672;SDS011;6909;52.202;9.876;2023-05-10T00:42:05;2.03;;;1.10;;
13672;SDS011;6909;52.202;9.876;2023-05-10T00:44:32;1.20;;;1.00;;
13672;SDS011;6909;52.202;9.876;2023-05-10T00:47:00;2.10;;;1.40;;
13672;SDS011;6909;52.202;9.876;2023-05-10T00:49:26;2.40;;;0.90;;
13672;SDS011;6909;52.202;9.876;2023-05-10T00:51:54;1.23;;;0.80;;
13672;SDS011;6909;52.202;9.876;2023-05-10T00:54:21;3.27;;;1.33;;
13672;SDS011;6909;52.202;9.876;2023-05-10T00:56:48;1.63;;;1.00;;
13672;SDS011;6909;52.202;9.876;2023-05-10T00:59:14;1.20;;;0.90;;
13672;SDS011;6909;52.202;9.876;2023-05-10T01:01:42;1.53;;;1.43;;
13672;SDS011;6909;52.202;9.876;2023-05-10T01:04:11;2.53;;;1.30;;
13672;SDS011;6909;52.202;9.876;2023-05-10T01:06:38;1.27;;;1.17;;
13672;SDS011;6909;52.202;9.876;2023-05-10T01:09:05;2.30;;;1.20;;
13672;SDS011;6909;52.202;9.876;2023-05-10T01:11:32;1.17;;;1.03;;
13672;SDS011;6909;52.202;9.876;2023-05-10T01:14:00;1.70;;;1.50;;
13672;SDS011;6909;52.202;9.876;2023-05-10T01:16:27;2.03;;;1.43;;
13672;SDS011;6909;52.202;9.876;2023-05-10T01:18:58;2.57;;;1.50;;
13672;SDS011;6909;52.202;9.876;2023-05-10T01:21:29;1.50;;;1.30;;
13672;SDS011;6909;52.202;9.876;2023-05-10T01:24:16;1.00;;;0.80;;
13672;SDS011;6909;52.202;9.876;2023-05-10T01:30:14;1.60;;;1.20;;
13672;SDS011;6909;52.202;9.876;2023-05-10T01:32:58;2.87;;;1.63;;
13672;SDS011;6909;52.202;9.876;2023-05-10T01:35:32;2.63;;;1.57;;
13672;SDS011;6909;52.202;9.876;2023-05-10T01:38:04;1.10;;;1.10;;
13672;SDS011;6909;52.202;9.876;2023-05-10T01:40:39;1.63;;;1.33;;
13672;SDS011;6909;52.202;9.876;2023-05-10T01:43:13;1.47;;;1.07;;
13672;SDS011;6909;52.202;9.876;2023-05-10T01:45:47;1.50;;;1.40;;
13672;SDS011;6909;52.202;9.876;2023-05-10T01:48:23;0.80;;;0.80;;
13672;SDS011;6909;52.202;9.876;2023-05-10T01:50:52;2.77;;;1.70;;
13672;SDS011;6909;52.202;9.876;2023-05-10T01:53:21;1.93;;;1.37;;
13672;SDS011;6909;52.202;9.876;2023-05-10T01:55:49;1.77;;;1.17;;
13672;SDS011;6909;52.202;9.876;2023-05-10T01:58:19;1.53;;;1.27;;
13672;SDS011;6909;52.202;9.876;2023-05-10T02:00:49;2.27;;;1.47;;
13672;SDS011;6909;52.202;9.876;2023-05-10T02:03:18;2.07;;;1.17;;
13672;SDS011;6909;52.202;9.876;2023-05-10T02:05:49;3.87;;;1.70;;
13672;SDS011;6909;52.202;9.876;2023-05-10T02:08:17;2.70;;;1.80;;
13672;SDS011;6909;52.202;9.876;2023-05-10T02:10:46;2.80;;;1.43;;
13672;SDS011;6909;52.202;9.876;2023-05-10T02:13:15;2.03;;;1.20;;
13672;SDS011;6909;52.202;9.876;2023-05-10T02:15:44;2.40;;;1.43;;
13672;SDS011;6909;52.202;9.876;2023-05-10T02:18:14;1.53;;;1.43;;
13672;SDS011;6909;52.202;9.876;2023-05-10T02:20:43;2.23;;;1.70;;
13672;SDS011;6909;52.202;9.876;2023-05-10T02:23:13;2.40;;;1.60;;
13672;SDS011;6909;52.202;9.876;2023-05-10T02:25:41;2.10;;;1.43;;
13672;SDS011;6909;52.202;9.876;2023-05-10T02:28:10;3.63;;;1.40;;
13672;SDS011;6909;52.202;9.876;2023-05-10T02:30:38;1.50;;;1.40;;
13672;SDS011;6909;52.202;9.876;2023-05-10T02:33:05;3.53;;;1.00;;
13672;SDS011;6909;52.202;9.876;2023-05-10T02:35:32;2.43;;;1.20;;
13672;SDS011;6909;52.202;9.876;2023-05-10T02:38:01;1.67;;;1.23;;
13672;SDS011;6909;52.202;9.876;2023-05-10T02:40:29;1.47;;;1.37;;
13672;SDS011;6909;52.202;9.876;2023-05-10T02:42:57;1.70;;;1.33;;
13672;SDS011;6909;52.202;9.876;2023-05-10T02:45:28;1.53;;;1.43;;
13672;SDS011;6909;52.202;9.876;2023-05-10T02:47:57;2.60;;;1.33;;
13672;SDS011;6909;52.202;9.876;2023-05-10T02:50:25;1.87;;;1.40;;
13672;SDS011;6909;52.202;9.876;2023-05-10T02:52:54;4.13;;;1.37;;
13672;SDS011;6909;52.202;9.876;2023-05-10T02:55:27;1.47;;;1.37;;
13672;SDS011;6909;52.202;9.876;2023-05-10T02:58:01;1.93;;;1.70;;
13672;SDS011;6909;52.202;9.876;2023-05-10T03:00:29;1.80;;;1.40;;
13672;SDS011;6909;52.202;9.876;2023-05-10T03:02:55;2.07;;;1.37;;
13672;SDS011;6909;52.202;9.876;2023-05-10T03:05:22;2.37;;;1.73;;
13672;SDS011;6909;52.202;9.876;2023-05-10T03:07:49;1.80;;;1.67;;
13672;SDS011;6909;52.202;9.876;2023-05-10T03:10:16;2.50;;;1.57;;
13672;SDS011;6909;52.202;9.876;2023-05-10T03:12:50;2.53;;;1.57;;
13672;SDS011;6909;52.202;9.876;2023-05-10T03:15:31;2.10;;;1.87;;
13672;SDS011;6909;52.202;9.876;2023-05-10T03:18:06;1.43;;;1.20;;
13672;SDS011;6909;52.202;9.876;2023-05-10T03:20:36;2.43;;;1.70;;
13672;SDS011;6909;52.202;9.876;2023-05-10T03:23:07;3.03;;;1.63;;
13672;SDS011;6909;52.202;9.876;2023-05-10T03:25:38;1.60;;;1.50;;
13672;SDS011;6909;52.202;9.876;2023-05-10T03:28:07;1.93;;;1.83;;
13672;SDS011;6909;52.202;9.876;2023-05-10T03:30:35;2.93;;;1.83;;
13672;SDS011;6909;52.202;9.876;2023-05-10T03:33:04;2.67;;;2.10;;
13672;SDS011;6909;52.202;9.876;2023-05-10T03:35:31;3.13;;;2.20;;
13672;SDS011;6909;52.202;9.876;2023-05-10T03:37:58;2.57;;;1.80;;
13672;SDS011;6909;52.202;9.876;2023-05-10T03:40:25;3.00;;;2.00;;
13672;SDS011;6909;52.202;9.876;2023-05-10T03:42:53;2.83;;;1.90;;
13672;SDS011;6909;52.202;9.876;2023-05-10T03:45:21;2.43;;;2.03;;
13672;SDS011;6909;52.202;9.876;2023-05-10T03:47:48;3.43;;;1.83;;
13672;SDS011;6909;52.202;9.876;2023-05-10T03:50:15;2.53;;;1.50;;
13672;SDS011;6909;52.202;9.876;2023-05-10T03:52:42;3.97;;;2.50;;
13672;SDS011;6909;52.202;9.876;2023-05-10T03:55:09;1.70;;;1.60;;
13672;SDS011;6909;52.202;9.876;2023-05-10T03:57:36;2.77;;;1.90;;
13672;SDS011;6909;52.202;9.876;2023-05-10T04:00:03;3.17;;;1.63;;
13672;SDS011;6909;52.202;9.876;2023-05-10T04:02:31;2.90;;;1.50;;
13672;SDS011;6909;52.202;9.876;2023-05-10T04:04:58;2.43;;;2.00;;
13672;SDS011;6909;52.202;9.876;2023-05-10T04:07:25;2.67;;;2.30;;
13672;SDS011;6909;52.202;9.876;2023-05-10T04:09:51;2.27;;;1.70;;
13672;SDS011;6909;52.202;9.876;2023-05-10T04:12:18;6.10;;;1.93;;
13672;SDS011;6909;52.202;9.876;2023-05-10T04:14:45;3.07;;;2.40;;
13672;SDS011;6909;52.202;9.876;2023-05-10T04:17:11;1.93;;;1.63;;
13672;SDS011;6909;52.202;9.876;2023-05-10T04:19:39;1.90;;;1.67;;
13672;SDS011;6909;52.202;9.876;2023-05-10T04:22:06;2.10;;;1.77;;
13672;SDS011;6909;52.202;9.876;2023-05-10T04:24:33;2.67;;;1.83;;
13672;SDS011;6909;52.202;9.876;2023-05-10T04:27:00;1.97;;;1.57;;
13672;SDS011;6909;52.202;9.876;2023-05-10T04:29:26;1.93;;;1.50;;
13672;SDS011;6909;52.202;9.876;2023-05-10T04:31:53;2.30;;;1.70;;
13672;SDS011;6909;52.202;9.876;2023-05-10T04:34:21;5.30;;;2.07;;
13672;SDS011;6909;52.202;9.876;2023-05-10T04:36:49;2.30;;;1.87;;
13672;SDS011;6909;52.202;9.876;2023-05-10T04:39:16;1.83;;;1.50;;
13672;SDS011;6909;52.202;9.876;2023-05-10T04:41:43;2.53;;;1.63;;
13672;SDS011;6909;52.202;9.876;2023-05-10T04:44:09;2.53;;;1.40;;
13672;SDS011;6909;52.202;9.876;2023-05-10T04:46:36;3.10;;;1.73;;
13672;SDS011;6909;52.202;9.876;2023-05-10T04:49:03;2.80;;;2.03;;
13672;SDS011;6909;52.202;9.876;2023-05-10T04:51:34;2.80;;;1.80;;
13672;SDS011;6909;52.202;9.876;2023-05-10T04:54:08;2.77;;;2.20;;
13672;SDS011;6909;52.202;9.876;2023-05-10T04:56:35;2.70;;;2.13;;
13672;SDS011;6909;52.202;9.876;2023-05-10T04:59:02;3.63;;;2.20;;
13672;SDS011;6909;52.202;9.876;2023-05-10T05:01:29;2.13;;;1.80;;
13672;SDS011;6909;52.202;9.876;2023-05-10T05:03:55;2.37;;;1.93;;
13672;SDS011;6909;52.202;9.876;2023-05-10T05:06:22;1.83;;;1.70;;
13672;SDS011;6909;52.202;9.876;2023-05-10T05:08:49;1.40;;;1.30;;
13672;SDS011;6909;52.202;9.876;2023-05-10T05:11:17;1.60;;;1.40;;
13672;SDS011;6909;52.202;9.876;2023-05-10T05:13:44;2.00;;;1.50;;
13672;SDS011;6909;52.202;9.876;2023-05-10T05:16:11;2.03;;;1.40;;
13672;SDS011;6909;52.202;9.876;2023-05-10T05:18:38;2.10;;;1.37;;
13672;SDS011;6909;52.202;9.876;2023-05-10T05:21:13;1.17;;;1.07;;
13672;SDS011;6909;52.202;9.876;2023-05-10T05:23:41;2.47;;;2.10;;
13672;SDS011;6909;52.202;9.876;2023-05-10T05:26:07;1.23;;;1.13;;
13672;SDS011;6909;52.202;9.876;2023-05-10T05:28:35;3.20;;;1.27;;
13672;SDS011;6909;52.202;9.876;2023-05-10T05:31:02;1.77;;;1.60;;
13672;SDS011;6909;52.202;9.876;2023-05-10T05:33:29;2.30;;;1.43;;
13672;SDS011;6909;52.202;9.876;2023-05-10T05:35:55;1.70;;;1.40;;
13672;SDS011;6909;52.202;9.876;2023-05-10T05:38:22;2.10;;;1.90;;
13672;SDS011;6909;52.202;9.876;2023-05-10T05:40:49;2.40;;;2.00;;
13672;SDS011;6909;52.202;9.876;2023-05-10T05:43:16;1.60;;;1.30;;
13672;SDS011;6909;52.202;9.876;2023-05-10T05:45:44;1.30;;;1.20;;
13672;SDS011;6909;52.202;9.876;2023-05-10T05:48:10;2.83;;;1.47;;
13672;SDS011;6909;52.202;9.876;2023-05-10T05:50:37;2.27;;;1.73;;
13672;SDS011;6909;52.202;9.876;2023-05-10T05:53:04;2.13;;;1.93;;
13672;SDS011;6909;52.202;9.876;2023-05-10T05:55:30;1.67;;;1.53;;
13672;SDS011;6909;52.202;9.876;2023-05-10T05:57:57;2.20;;;1.80;;
13672;SDS011;6909;52.202;9.876;2023-05-10T06:00:24;2.50;;;1.90;;
13672;SDS011;6909;52.202;9.876;2023-05-10T06:02:52;2.70;;;2.50;;
13672;SDS011;6909;52.202;9.876;2023-05-10T06:05:19;2.47;;;1.50;;
13672;SDS011;6909;52.202;9.876;2023-05-10T06:07:46;1.87;;;1.70;;
13672;SDS011;6909;52.202;9.876;2023-05-10T06:10:12;1.73;;;1.63;;
13672;SDS011;6909;52.202;9.876;2023-05-10T06:12:39;2.23;;;2.00;;
13672;SDS011;6909;52.202;9.876;2023-05-10T06:15:06;1.97;;;1.70;;
13672;SDS011;6909;52.202;9.876;2023-05-10T06:17:34;2.00;;;1.73;;
13672;SDS011;6909;52.202;9.876;2023-05-10T06:20:02;2.07;;;1.40;;
13672;SDS011;6909;52.202;9.876;2023-05-10T06:22:29;2.97;;;1.73;;
13672;SDS011;6909;52.202;9.876;2023-05-10T06:24:56;2.57;;;1.70;;
13672;SDS011;6909;52.202;9.876;2023-05-10T06:27:23;2.23;;;1.53;;
13672;SDS011;6909;52.202;9.876;2023-05-10T06:29:49;2.30;;;1.90;;
13672;SDS011;6909;52.202;9.876;2023-05-10T06:32:16;2.47;;;1.70;;
13672;SDS011;6909;52.202;9.876;2023-05-10T06:34:43;3.07;;;1.80;;
13672;SDS011;6909;52.202;9.876;2023-05-10T06:37:11;2.30;;;1.67;;
13672;SDS011;6909;52.202;9.876;2023-05-10T06:39:37;3.10;;;2.37;;
13672;SDS011;6909;52.202;9.876;2023-05-10T06:42:04;2.23;;;2.03;;
13672;SDS011;6909;52.202;9.876;2023-05-10T06:44:30;1.67;;;1.50;;
13672;SDS011;6909;52.202;9.876;2023-05-10T06:46:57;2.07;;;1.63;;
13672;SDS011;6909;52.202;9.876;2023-05-10T06:49:24;1.63;;;1.40;;
13672;SDS011;6909;52.202;9.876;2023-05-10T06:51:50;2.20;;;1.50;;
13672;SDS011;6909;52.202;9.876;2023-05-10T06:54:18;1.50;;;1.40;;
13672;SDS011;6909;52.202;9.876;2023-05-10T06:56:45;2.87;;;1.37;;
13672;SDS011;6909;52.202;9.876;2023-05-10T06:59:12;2.20;;;1.63;;
13672;SDS011;6909;52.202;9.876;2023-05-10T07:01:40;2.40;;;1.60;;
13672;SDS011;6909;52.202;9.876;2023-05-10T07:04:06;2.20;;;1.90;;
13672;SDS011;6909;52.202;9.876;2023-05-10T07:06:33;2.53;;;2.03;;
13672;SDS011;6909;52.202;9.876;2023-05-10T07:09:00;1.43;;;1.33;;
13672;SDS011;6909;52.202;9.876;2023-05-10T07:11:28;2.00;;;1.37;;
13672;SDS011;6909;52.202;9.876;2023-05-10T07:13:55;1.67;;;1.57;;
13672;SDS011;6909;52.202;9.876;2023-05-10T07:16:21;2.33;;;1.40;;
13672;SDS011;6909;52.202;9.876;2023-05-10T07:18:48;1.60;;;1.37;;
13672;SDS011;6909;52.202;9.876;2023-05-10T07:21:15;1.47;;;1.37;;
13672;SDS011;6909;52.202;9.876;2023-05-10T07:23:42;1.57;;;1.43;;
13672;SDS011;6909;52.202;9.876;2023-05-10T07:26:08;1.73;;;1.53;;
13672;SDS011;6909;52.202;9.876;2023-05-10T07:28:37;1.60;;;1.33;;
13672;SDS011;6909;52.202;9.876;2023-05-10T07:31:04;1.57;;;1.47;;
13672;SDS011;6909;52.202;9.876;2023-05-10T07:33:30;1.43;;;1.10;;
13672;SDS011;6909;52.202;9.876;2023-05-10T07:35:57;1.77;;;1.67;;
13672;SDS011;6909;52.202;9.876;2023-05-10T07:38:23;1.23;;;1.03;;
13672;SDS011;6909;52.202;9.876;2023-05-10T07:40:50;1.40;;;1.30;;
13672;SDS011;6909;52.202;9.876;2023-05-10T07:43:17;2.03;;;0.93;;
13672;SDS011;6909;52.202;9.876;2023-05-10T07:45:45;1.70;;;1.60;;
13672;SDS011;6909;52.202;9.876;2023-05-10T07:48:11;1.47;;;1.03;;
13672;SDS011;6909;52.202;9.876;2023-05-10T07:50:38;1.30;;;1.20;;
13672;SDS011;6909;52.202;9.876;2023-05-10T07:53:05;1.43;;;1.10;;
13672;SDS011;6909;52.202;9.876;2023-05-10T07:55:32;1.73;;;1.63;;
13672;SDS011;6909;52.202;9.876;2023-05-10T07:57:59;1.53;;;1.23;;
13672;SDS011;6909;52.202;9.876;2023-05-10T08:00:26;1.47;;;1.20;;
13672;SDS011;6909;52.202;9.876;2023-05-10T08:02:54;1.10;;;1.00;;
13672;SDS011;6909;52.202;9.876;2023-05-10T08:05:21;1.37;;;1.00;;
13672;SDS011;6909;52.202;9.876;2023-05-10T08:07:48;1.10;;;1.00;;
13672;SDS011;6909;52.202;9.876;2023-05-10T08:10:14;1.13;;;1.03;;
13672;SDS011;6909;52.202;9.876;2023-05-10T08:12:41;1.10;;;1.00;;
13672;SDS011;6909;52.202;9.876;2023-05-10T08:15:08;1.13;;;1.00;;
13672;SDS011;6909;52.202;9.876;2023-05-10T08:17:36;1.73;;;1.13;;
13672;SDS011;6909;52.202;9.876;2023-05-10T08:20:04;0.97;;;0.90;;
13672;SDS011;6909;52.202;9.876;2023-05-10T08:22:32;1.77;;;0.97;;
13672;SDS011;6909;52.202;9.876;2023-05-10T08:24:59;1.13;;;1.03;;
13672;SDS011;6909;52.202;9.876;2023-05-10T08:27:26;0.90;;;0.80;;
13672;SDS011;6909;52.202;9.876;2023-05-10T08:29:52;0.77;;;0.77;;
13672;SDS011;6909;52.202;9.876;2023-05-10T08:32:19;0.70;;;0.67;;
13672;SDS011;6909;52.202;9.876;2023-05-10T08:34:46;0.73;;;0.63;;
13672;SDS011;6909;52.202;9.876;2023-05-10T08:37:14;0.60;;;0.60;;
13672;SDS011;6909;52.202;9.876;2023-05-10T08:39:41;0.40;;;0.40;;
13672;SDS011;6909;52.202;9.876;2023-05-10T08:42:08;0.30;;;0.30;;
13672;SDS011;6909;52.202;9.876;2023-05-10T08:44:35;0.53;;;0.20;;
13672;SDS011;6909;52.202;9.876;2023-05-10T08:47:04;0.30;;;0.30;;
13672;SDS011;6909;52.202;9.876;2023-05-10T08:49:32;0.60;;;0.50;;
13672;SDS011;6909;52.202;9.876;2023-05-10T08:52:00;0.40;;;0.40;;
13672;SDS011;6909;52.202;9.876;2023-05-10T08:54:32;0.30;;;0.30;;
13672;SDS011;6909;52.202;9.876;2023-05-10T08:56:59;0.30;;;0.30;;
13672;SDS011;6909;52.202;9.876;2023-05-10T08:59:26;0.20;;;0.20;;
13672;SDS011;6909;52.202;9.876;2023-05-10T09:01:53;0.53;;;0.50;;
13672;SDS011;6909;52.202;9.876;2023-05-10T09:04:23;0.20;;;0.20;;
13672;SDS011;6909;52.202;9.876;2023-05-10T09:06:50;0.50;;;0.30;;
13672;SDS011;6909;52.202;9.876;2023-05-10T09:09:17;0.20;;;0.20;;
13672;SDS011;6909;52.202;9.876;2023-05-10T09:11:46;0.20;;;0.20;;
13672;SDS011;6909;52.202;9.876;2023-05-10T09:14:14;0.20;;;0.20;;
13672;SDS011;6909;52.202;9.876;2023-05-10T09:16:42;0.10;;;0.10;;
13672;SDS011;6909;52.202;9.876;2023-05-10T09:19:08;0.20;;;0.20;;
13672;SDS011;6909;52.202;9.876;2023-05-10T09:21:35;0.40;;;0.17;;
13672;SDS011;6909;52.202;9.876;2023-05-10T09:24:03;0.10;;;0.10;;
13672;SDS011;6909;52.202;9.876;2023-05-10T09:26:31;0.83;;;0.20;;
13672;SDS011;6909;52.202;9.876;2023-05-10T09:28:59;0.30;;;0.20;;
13672;SDS011;6909;52.202;9.876;2023-05-10T09:34:11;0.10;;;0.10;;
13672;SDS011;6909;52.202;9.876;2023-05-10T09:36:49;0.00;;;0.00;;
13672;SDS011;6909;52.202;9.876;2023-05-10T09:39:21;0.20;;;0.20;;
13672;SDS011;6909;52.202;9.876;2023-05-10T09:41:57;0.17;;;0.17;;
13672;SDS011;6909;52.202;9.876;2023-05-10T09:44:26;0.20;;;0.20;;
13672;SDS011;6909;52.202;9.876;2023-05-10T09:46:53;0.20;;;0.20;;
13672;SDS011;6909;52.202;9.876;2023-05-10T09:49:20;0.30;;;0.20;;
13672;SDS011;6909;52.202;9.876;2023-05-10T09:51:54;0.20;;;0.20;;
13672;SDS011;6909;52.202;9.876;2023-05-10T09:54:26;0.37;;;0.30;;
13672;SDS011;6909;52.202;9.876;2023-05-10T09:56:53;0.20;;;0.20;;
13672;SDS011;6909;52.202;9.876;2023-05-10T09:59:20;0.23;;;0.23;;
13672;SDS011;6909;52.202;9.876;2023-05-10T10:01:50;0.60;;;0.60;;
13672;SDS011;6909;52.202;9.876;2023-05-10T10:04:17;0.30;;;0.30;;
13672;SDS011;6909;52.202;9.876;2023-05-10T10:06:45;0.50;;;0.30;;
13672;SDS011;6909;52.202;9.876;2023-05-10T10:09:12;0.50;;;0.23;;
13672;SDS011;6909;52.202;9.876;2023-05-10T10:11:40;0.33;;;0.30;;
13672;SDS011;6909;52.202;9.876;2023-05-10T10:14:07;0.20;;;0.20;;
13672;SDS011;6909;52.202;9.876;2023-05-10T10:16:33;0.20;;;0.20;;
13672;SDS011;6909;52.202;9.876;2023-05-10T10:19:02;0.30;;;0.30;;
13672;SDS011;6909;52.202;9.876;2023-05-10T10:21:28;0.30;;;0.30;;
13672;SDS011;6909;52.202;9.876;2023-05-10T10:23:56;0.40;;;0.40;;
13672;SDS011;6909;52.202;9.876;2023-05-10T10:26:22;2.17;;;0.50;;
13672;SDS011;6909;52.202;9.876;2023-05-10T10:28:51;0.60;;;0.60;;
13672;SDS011;6909;52.202;9.876;2023-05-10T10:31:26;0.60;;;0.50;;
13672;SDS011;6909;52.202;9.876;2023-05-10T10:34:03;0.77;;;0.63;;
13672;SDS011;6909;52.202;9.876;2023-05-10T10:36:32;0.53;;;0.53;;
13672;SDS011;6909;52.202;9.876;2023-05-10T10:39:02;0.77;;;0.70;;
13672;SDS011;6909;52.202;9.876;2023-05-10T10:41:36;0.68;;;0.68;;
13672;SDS011;6909;52.202;9.876;2023-05-10T10:44:25;0.50;;;0.50;;
13672;SDS011;6909;52.202;9.876;2023-05-10T10:46:59;0.60;;;0.57;;
13672;SDS011;6909;52.202;9.876;2023-05-10T10:49:30;0.60;;;0.60;;
13672;SDS011;6909;52.202;9.876;2023-05-10T10:52:12;1.47;;;0.90;;
13672;SDS011;6909;52.202;9.876;2023-05-10T10:54:40;1.10;;;1.00;;
13672;SDS011;6909;52.202;9.876;2023-05-10T10:57:10;0.95;;;0.95;;
13672;SDS011;6909;52.202;9.876;2023-05-10T10:59:41;1.08;;;0.98;;
13672;SDS011;6909;52.202;9.876;2023-05-10T11:02:08;2.80;;;1.02;;
13672;SDS011;6909;52.202;9.876;2023-05-10T11:04:42;1.40;;;0.93;;
13672;SDS011;6909;52.202;9.876;2023-05-10T11:07:18;0.90;;;0.77;;
13672;SDS011;6909;52.202;9.876;2023-05-10T11:09:45;1.05;;;0.85;;
13672;SDS011;6909;52.202;9.876;2023-05-10T11:12:13;1.20;;;0.90;;
13672;SDS011;6909;52.202;9.876;2023-05-10T11:14:39;3.50;;;0.80;;
13672;SDS011;6909;52.202;9.876;2023-05-10T11:20:04;2.58;;;1.13;;
13672;SDS011;6909;52.202;9.876;2023-05-10T11:25:15;1.33;;;1.20;;
13672;SDS011;6909;52.202;9.876;2023-05-10T11:27:42;1.30;;;1.20;;
13672;SDS011;6909;52.202;9.876;2023-05-10T11:30:09;0.90;;;0.75;;
13672;SDS011;6909;52.202;9.876;2023-05-10T11:32:37;1.33;;;1.13;;
13672;SDS011;6909;52.202;9.876;2023-05-10T11:35:08;4.05;;;1.40;;
13672;SDS011;6909;52.202;9.876;2023-05-10T11:37:35;1.17;;;0.95;;
13672;SDS011;6909;52.202;9.876;2023-05-10T11:40:04;0.70;;;0.68;;
13672;SDS011;6909;52.202;9.876;2023-05-10T11:42:32;0.80;;;0.80;;
13672;SDS011;6909;52.202;9.876;2023-05-10T11:45:00;1.33;;;1.05;;
13672;SDS011;6909;52.202;9.876;2023-05-10T11:47:26;1.98;;;0.75;;
13672;SDS011;6909;52.202;9.876;2023-05-10T11:49:53;2.00;;;0.77;;
13672;SDS011;6909;52.202;9.876;2023-05-10T11:52:21;1.02;;;0.80;;
13672;SDS011;6909;52.202;9.876;2023-05-10T11:54:50;1.25;;;1.15;;
13672;SDS011;6909;52.202;9.876;2023-05-10T11:57:18;1.77;;;1.10;;
13672;SDS011;6909;52.202;9.876;2023-05-10T11:59:45;1.25;;;0.70;;
13672;SDS011;6909;52.202;9.876;2023-05-10T12:02:11;1.23;;;1.08;;
13672;SDS011;6909;52.202;9.876;2023-05-10T12:04:38;1.63;;;1.10;;
13672;SDS011;6909;52.202;9.876;2023-05-10T12:07:06;1.27;;;1.00;;
13672;SDS011;6909;52.202;9.876;2023-05-10T12:09:34;3.28;;;1.20;;
13672;SDS011;6909;52.202;9.876;2023-05-10T12:12:00;2.53;;;0.77;;
13672;SDS011;6909;52.202;9.876;2023-05-10T12:14:28;1.35;;;0.95;;
13672;SDS011;6909;52.202;9.876;2023-05-10T12:16:58;1.13;;;1.00;;
13672;SDS011;6909;52.202;9.876;2023-05-10T12:19:24;1.67;;;1.00;;
13672;SDS011;6909;52.202;9.876;2023-05-10T12:21:51;1.45;;;0.90;;
13672;SDS011;6909;52.202;9.876;2023-05-10T12:24:18;0.90;;;0.68;;
13672;SDS011;6909;52.202;9.876;2023-05-10T12:26:47;1.52;;;0.98;;
13672;SDS011;6909;52.202;9.876;2023-05-10T12:29:15;1.65;;;0.90;;
13672;SDS011;6909;52.202;9.876;2023-05-10T12:31:49;1.65;;;1.02;;
13672;SDS011;6909;52.202;9.876;2023-05-10T12:34:26;3.17;;;1.20;;
13672;SDS011;6909;52.202;9.876;2023-05-10T12:36:53;2.20;;;1.20;;
13672;SDS011;6909;52.202;9.876;2023-05-10T12:39:20;3.63;;;1.20;;
13672;SDS011;6909;52.202;9.876;2023-05-10T12:41:48;2.87;;;1.40;;
13672;SDS011;6909;52.202;9.876;2023-05-10T12:44:15;1.37;;;1.10;;
13672;SDS011;6909;52.202;9.876;2023-05-10T12:46:42;1.90;;;1.00;;
13672;SDS011;6909;52.202;9.876;2023-05-10T12:49:08;3.23;;;1.03;;
13672;SDS011;6909;52.202;9.876;2023-05-10T12:51:35;1.23;;;1.07;;
13672;SDS011;6909;52.202;9.876;2023-05-10T12:54:02;1.50;;;0.70;;
13672;SDS011;6909;52.202;9.876;2023-05-10T12:56:28;1.27;;;0.57;;
13672;SDS011;6909;52.202;9.876;2023-05-10T12:58:56;0.60;;;0.60;;
13672;SDS011;6909;52.202;9.876;2023-05-10T13:01:23;1.10;;;1.00;;
13672;SDS011;6909;52.202;9.876;2023-05-10T13:03:50;0.80;;;0.60;;
13672;SDS011;6909;52.202;9.876;2023-05-10T13:06:16;1.00;;;0.90;;
13672;SDS011;6909;52.202;9.876;2023-05-10T13:08:43;1.47;;;0.73;;
13672;SDS011;6909;52.202;9.876;2023-05-10T13:11:10;1.07;;;0.80;;
13672;SDS011;6909;52.202;9.876;2023-05-10T13:13:36;1.07;;;1.00;;
13672;SDS011;6909;52.202;9.876;2023-05-10T13:16:04;0.60;;;0.53;;
13672;SDS011;6909;52.202;9.876;2023-05-10T13:18:32;0.70;;;0.70;;
13672;SDS011;6909;52.202;9.876;2023-05-10T13:20:58;0.60;;;0.60;;
13672;SDS011;6909;52.202;9.876;2023-05-10T13:23:25;0.60;;;0.60;;
13672;SDS011;6909;52.202;9.876;2023-05-10T13:25:52;0.70;;;0.70;;
13672;SDS011;6909;52.202;9.876;2023-05-10T13:28:18;0.60;;;0.50;;
13672;SDS011;6909;52.202;9.876;2023-05-10T13:30:45;0.60;;;0.55;;
13672;SDS011;6909;52.202;9.876;2023-05-10T13:33:13;0.40;;;0.40;;
13672;SDS011;6909;52.202;9.876;2023-05-10T13:35:40;0.70;;;0.60;;
13672;SDS011;6909;52.202;9.876;2023-05-10T13:38:06;1.38;;;0.73;;
13672;SDS011;6909;52.202;9.876;2023-05-10T13:40:33;0.50;;;0.50;;
13672;SDS011;6909;52.202;9.876;2023-05-10T13:43:00;0.80;;;0.80;;
13672;SDS011;6909;52.202;9.876;2023-05-10T13:45:27;0.80;;;0.60;;
13672;SDS011;6909;52.202;9.876;2023-05-10T13:47:54;0.77;;;0.60;;
13672;SDS011;6909;52.202;9.876;2023-05-10T13:50:22;0.85;;;0.63;;
13672;SDS011;6909;52.202;9.876;2023-05-10T13:52:48;0.70;;;0.60;;
13672;SDS011;6909;52.202;9.876;2023-05-10T13:55:15;0.80;;;0.80;;
13672;SDS011;6909;52.202;9.876;2023-05-10T13:57:41;0.77;;;0.70;;
13672;SDS011;6909;52.202;9.876;2023-05-10T14:00:08;0.65;;;0.63;;
13672;SDS011;6909;52.202;9.876;2023-05-10T14:02:36;1.20;;;0.50;;
13672;SDS011;6909;52.202;9.876;2023-05-10T14:05:03;0.77;;;0.70;;
13672;SDS011;6909;52.202;9.876;2023-05-10T14:07:31;0.73;;;0.60;;
13672;SDS011;6909;52.202;9.876;2023-05-10T14:09:58;0.60;;;0.60;;
13672;SDS011;6909;52.202;9.876;2023-05-10T14:12:24;0.70;;;0.70;;
13672;SDS011;6909;52.202;9.876;2023-05-10T14:14:51;0.77;;;0.77;;
13672;SDS011;6909;52.202;9.876;2023-05-10T14:17:18;0.50;;;0.50;;
13672;SDS011;6909;52.202;9.876;2023-05-10T14:19:44;0.80;;;0.80;;
13672;SDS011;6909;52.202;9.876;2023-05-10T14:22:11;1.40;;;0.75;;
13672;SDS011;6909;52.202;9.876;2023-05-10T14:24:39;2.05;;;1.02;;
13672;SDS011;6909;52.202;9.876;2023-05-10T14:27:07;1.00;;;0.77;;
13672;SDS011;6909;52.202;9.876;2023-05-10T14:29:34;1.77;;;0.80;;
13672;SDS011;6909;52.202;9.876;2023-05-10T14:32:00;1.08;;;0.93;;
13672;SDS011;6909;52.202;9.876;2023-05-10T14:34:27;0.93;;;0.88;;
13672;SDS011;6909;52.202;9.876;2023-05-10T14:36:54;1.80;;;1.08;;
13672;SDS011;6909;52.202;9.876;2023-05-10T14:39:21;0.82;;;0.80;;
13672;SDS011;6909;52.202;9.876;2023-05-10T14:41:49;0.90;;;0.75;;
13672;SDS011;6909;52.202;9.876;2023-05-10T14:44:17;1.70;;;1.00;;
13672;SDS011;6909;52.202;9.876;2023-05-10T14:46:43;0.85;;;0.70;;
13672;SDS011;6909;52.202;9.876;2023-05-10T14:49:10;0.70;;;0.52;;
13672;SDS011;6909;52.202;9.876;2023-05-10T14:51:37;1.00;;;0.90;;
13672;SDS011;6909;52.202;9.876;2023-05-10T14:54:03;2.15;;;1.00;;
13672;SDS011;6909;52.202;9.876;2023-05-10T14:56:30;1.08;;;0.98;;
13672;SDS011;6909;52.202;9.876;2023-05-10T14:58:58;1.15;;;1.00;;
13672;SDS011;6909;52.202;9.876;2023-05-10T15:01:25;2.85;;;1.02;;
13672;SDS011;6909;52.202;9.876;2023-05-10T15:03:52;1.17;;;0.70;;
13672;SDS011;6909;52.202;9.876;2023-05-10T15:06:22;0.95;;;0.80;;
13672;SDS011;6909;52.202;9.876;2023-05-10T15:08:50;1.48;;;1.13;;
13672;SDS011;6909;52.202;9.876;2023-05-10T15:11:16;1.52;;;1.00;;
13672;SDS011;6909;52.202;9.876;2023-05-10T15:13:45;1.23;;;1.10;;
13672;SDS011;6909;52.202;9.876;2023-05-10T15:16:13;0.88;;;0.82;;